Orbital elements of SL-8 DEB
| Launched | 11 February 1991 |
| Flight ended | – |
| Launch site | Plesetsk Missile and Space Complex, Russia |
| Owner | Commonwealth of Independent States (former USSR) |
| NORAD ID | 22132 |
| Date fetched |
Epoch osculation |
Inc. [°] |
Ecc. | RA asc node [hr] |
Arg Peri. [°] |
Mean anom [°] |
Mean motion [rev/day] |
Abs. mag |
| Date fetched |
Epoch osculation |
Inc. [°] |
Ecc. | RA asc node [hr] |
Arg Peri. [°] |
Mean anom [°] |
Mean motion [rev/day] |
Abs. mag |
| 2026 May 01 17:56 | 2026 Apr 30 09:32:58 | 74.0608 | 0.01420 | 0.3279 | 90.1353 | 90.3960 | 12.16953 | – |
| 2026 Apr 30 17:56 | 2026 Apr 30 09:32:58 | 74.0608 | 0.01420 | 0.3279 | 90.1353 | 90.3960 | 12.16953 | – |
| 2026 Apr 29 17:57 | 2026 Apr 24 11:07:58 | 74.0615 | 0.01419 | 0.8210 | 98.5562 | 90.3960 | 12.16953 | – |
| 2026 Apr 28 17:56 | 2026 Apr 24 11:07:58 | 74.0615 | 0.01419 | 0.8210 | 98.5562 | 90.3960 | 12.16953 | – |
| 2026 Apr 27 17:58 | 2026 Apr 24 11:07:58 | 74.0615 | 0.01419 | 0.8210 | 98.5562 | 90.3960 | 12.16953 | – |
| 2026 Apr 26 17:58 | 2026 Apr 24 11:07:58 | 74.0615 | 0.01419 | 0.8210 | 98.5562 | 90.3960 | 12.16953 | – |
| 2026 Apr 25 17:58 | 2026 Apr 24 11:07:58 | 74.0615 | 0.01419 | 0.8210 | 98.5562 | 90.3960 | 12.16953 | – |
| 2026 Apr 24 17:59 | 2026 Apr 24 11:07:58 | 74.0615 | 0.01419 | 0.8210 | 98.5562 | 90.3960 | 12.16953 | – |
| 2026 Apr 23 17:57 | 2026 Apr 19 10:49:16 | 74.0611 | 0.01418 | 1.2376 | 105.6819 | 90.3960 | 12.16953 | – |
| 2026 Apr 22 17:57 | 2026 Apr 19 10:49:16 | 74.0611 | 0.01418 | 1.2376 | 105.6819 | 90.3960 | 12.16953 | – |
| 2026 Apr 21 17:57 | 2026 Apr 19 10:49:16 | 74.0611 | 0.01418 | 1.2376 | 105.6819 | 90.3960 | 12.16953 | – |
| 2026 Apr 20 17:57 | 2026 Apr 19 10:49:16 | 74.0611 | 0.01418 | 1.2376 | 105.6819 | 90.3960 | 12.16953 | – |
| 2026 Apr 19 17:58 | 2026 Apr 19 10:49:16 | 74.0611 | 0.01418 | 1.2376 | 105.6819 | 90.3960 | 12.16953 | – |
| 2026 Apr 18 17:56 | 2026 Apr 13 05:06:13 | 74.0609 | 0.01418 | 1.7560 | 114.5623 | 90.3960 | 12.16953 | – |
| 2026 Apr 16 17:57 | 2026 Apr 13 05:06:13 | 74.0609 | 0.01418 | 1.7560 | 114.5623 | 90.3960 | 12.16953 | – |
| 2026 Apr 14 17:57 | 2026 Apr 13 05:06:13 | 74.0609 | 0.01418 | 1.7560 | 114.5623 | 90.3960 | 12.16953 | – |
| 2026 Apr 13 17:57 | 2026 Apr 13 05:06:13 | 74.0609 | 0.01418 | 1.7560 | 114.5623 | 90.3960 | 12.16953 | – |
| 2026 Apr 12 17:57 | 2026 Apr 08 02:05:13 | 74.0604 | 0.01417 | 2.1820 | 121.8622 | 90.3960 | 12.16953 | – |
| 2026 Apr 11 17:57 | 2026 Apr 08 02:05:13 | 74.0604 | 0.01417 | 2.1820 | 121.8622 | 90.3960 | 12.16953 | – |
| 2026 Apr 10 17:58 | 2026 Apr 08 02:05:13 | 74.0604 | 0.01417 | 2.1820 | 121.8622 | 90.3960 | 12.16953 | – |
| 2026 Apr 09 18:01 | 2026 Apr 08 02:05:13 | 74.0604 | 0.01417 | 2.1820 | 121.8622 | 90.3960 | 12.16953 | – |
| 2026 Apr 08 17:57 | 2026 Apr 08 02:05:13 | 74.0604 | 0.01417 | 2.1820 | 121.8622 | 90.3960 | 12.16953 | – |
| 2026 Apr 07 17:57 | 2026 Apr 02 06:42:46 | 74.0596 | 0.01417 | 2.6646 | 130.1292 | 90.3960 | 12.16953 | – |
| 2026 Apr 06 17:57 | 2026 Apr 02 06:42:46 | 74.0596 | 0.01417 | 2.6646 | 130.1292 | 90.3960 | 12.16953 | – |
| 2026 Apr 05 17:56 | 2026 Apr 02 06:42:46 | 74.0596 | 0.01417 | 2.6646 | 130.1292 | 90.3960 | 12.16953 | – |
| 2026 Apr 04 17:57 | 2026 Apr 02 06:42:46 | 74.0596 | 0.01417 | 2.6646 | 130.1292 | 90.3960 | 12.16953 | – |